createdAt,value
2018-11-01T00:00:05.210Z,95.5
2018-11-01T00:05:05.138Z,95.6
2018-11-01T00:10:05.269Z,95.9
2018-11-01T00:15:05.315Z,96.6
2018-11-01T00:20:05.340Z,97.1
2018-11-01T00:25:05.277Z,97.4
2018-11-01T00:30:05.383Z,96.4
2018-11-01T00:35:17.536Z,96.9
2018-11-01T00:40:17.489Z,97.8
2018-11-01T00:45:17.289Z,97.5
2018-11-01T00:50:17.435Z,97.5
2018-11-01T00:55:17.459Z,97.9
2018-11-01T01:00:18.718Z,98.3
2018-11-01T01:05:18.761Z,97.6
2018-11-01T01:10:20.731Z,97.4
2018-11-01T01:15:20.665Z,97.3
2018-11-01T01:20:33.198Z,97.8
2018-11-01T01:25:32.924Z,97.7
2018-11-01T01:30:33.061Z,97.2
2018-11-01T01:35:33.089Z,98.7
2018-11-01T01:40:32.929Z,97.6
2018-11-01T01:45:32.850Z,97.2
2018-11-01T01:50:32.888Z,98.2
2018-11-01T01:55:34.862Z,98.3
2018-11-01T02:00:34.593Z,97.5
2018-11-01T02:05:47.022Z,98.2
2018-11-01T02:10:46.847Z,97.8
2018-11-01T02:15:46.782Z,98.3
2018-11-01T02:20:46.916Z,98.7
2018-11-01T02:25:46.747Z,98.7
2018-11-01T02:30:46.885Z,99.2
2018-11-01T02:35:46.910Z,98.9
2018-11-01T02:40:46.746Z,99.1
2018-11-01T02:45:46.874Z,98.9
2018-11-01T02:50:58.795Z,99
2018-11-01T02:55:58.445Z,98.8
2018-11-01T03:00:58.656Z,98.9
2018-11-01T03:05:58.687Z,98.8
2018-11-01T03:10:58.528Z,99.2
2018-11-01T03:15:58.652Z,98.3
2018-11-01T03:20:58.693Z,97.8
2018-11-01T03:25:58.623Z,98.4
2018-11-01T03:30:58.650Z,98.8
2018-11-01T03:36:10.563Z,98.6
2018-11-01T03:41:10.300Z,98.4
2018-11-01T03:46:10.430Z,97.7
2018-11-01T03:51:10.394Z,98.6
2018-11-01T03:56:10.300Z,97.4
2018-11-01T04:01:10.338Z,97.6
2018-11-01T04:06:10.365Z,97.4
2018-11-01T04:11:15.007Z,97.1
2018-11-01T04:16:14.833Z,97.8
2018-11-01T04:21:26.338Z,98.2
2018-11-01T04:26:26.172Z,97.6
2018-11-01T04:31:26.098Z,97
2018-11-01T04:36:26.133Z,97.5
2018-11-01T04:41:26.101Z,97.3
2018-11-01T04:46:26.306Z,96.6
2018-11-01T04:51:26.067Z,97.5
2018-11-01T04:56:25.962Z,99.2
2018-11-01T05:01:26.127Z,97.4
2018-11-01T05:06:37.985Z,97.9
2018-11-01T05:11:37.754Z,99.4
2018-11-01T05:16:37.795Z,98.8
2018-11-01T05:21:37.832Z,100
2018-11-01T05:26:37.630Z,100
2018-11-01T05:31:37.625Z,99.6
2018-11-01T05:36:37.630Z,98.7
2018-11-01T05:41:37.970Z,99
2018-11-01T05:46:37.893Z,99.2
2018-11-01T05:51:50.160Z,99.5
2018-11-01T05:56:49.909Z,99.6
2018-11-01T06:01:49.910Z,99.2
2018-11-01T06:06:50.139Z,99.4
2018-11-01T06:11:50.058Z,99
2018-11-01T06:16:50.121Z,99.6
2018-11-01T06:21:49.913Z,99.2
2018-11-01T06:26:49.930Z,99.6
2018-11-01T06:31:50.095Z,99.5
2018-11-01T06:37:02.404Z,99.8
2018-11-01T06:42:02.349Z,100
2018-11-01T06:47:02.385Z,100
2018-11-01T06:52:02.151Z,100
2018-11-01T06:57:02.336Z,100
2018-11-01T07:02:02.250Z,100
2018-11-01T07:07:02.139Z,100
2018-11-01T07:12:02.285Z,100
2018-11-01T07:17:02.630Z,100
2018-11-01T07:22:14.378Z,100
2018-11-01T07:27:14.114Z,100
2018-11-01T07:32:14.131Z,100
2018-11-01T07:37:14.104Z,100
2018-11-01T07:42:14.142Z,100
2018-11-01T07:47:14.154Z,100
2018-11-01T07:52:14.138Z,100
2018-11-01T07:57:14.187Z,100
2018-11-01T08:02:14.189Z,100
2018-11-01T08:07:26.420Z,89.5
2018-11-01T08:12:26.169Z,78.9
2018-11-01T08:17:26.153Z,79.3
2018-11-01T08:22:26.171Z,76.4
2018-11-01T08:27:26.145Z,74.8
2018-11-01T08:32:26.174Z,68.4
2018-11-01T08:37:26.214Z,64.5
2018-11-01T08:42:26.116Z,63
2018-11-01T08:47:26.120Z,62.4
2018-11-01T08:52:37.774Z,60
2018-11-01T08:57:37.444Z,59.9
2018-11-01T09:02:37.567Z,56.6
2018-11-01T09:07:37.892Z,55.3
2018-11-01T09:12:37.717Z,55.1
2018-11-01T09:17:37.624Z,51.1
2018-11-01T09:22:37.570Z,52.1
2018-11-01T09:27:37.590Z,52.7
2018-11-01T09:32:37.594Z,51.6
2018-11-01T09:37:48.900Z,52.5
2018-11-01T09:42:48.624Z,52.5
2018-11-01T09:47:49.255Z,51.1
2018-11-01T09:52:48.679Z,52.2
2018-11-01T09:57:48.647Z,53.4
2018-11-01T10:02:48.648Z,55.3
2018-11-01T10:07:48.636Z,55.7
2018-11-01T10:12:48.632Z,53.8
2018-11-01T10:17:50.036Z,52
2018-11-01T10:23:00.043Z,52.7
2018-11-01T10:27:59.579Z,52.7
2018-11-01T10:32:59.607Z,52.2
2018-11-01T10:46:04.722Z,53
2018-11-01T10:51:04.702Z,52.8
2018-11-01T10:56:04.696Z,52.1
2018-11-01T11:01:04.930Z,50.4
2018-11-01T11:06:16.416Z,51.7
2018-11-01T11:11:16.160Z,52.2
2018-11-01T11:16:16.147Z,53.4
2018-11-01T11:21:17.258Z,53.4
2018-11-01T11:26:16.431Z,52.4
2018-11-01T11:31:16.421Z,54.3
2018-11-01T11:36:16.410Z,54.6
2018-11-01T11:41:17.757Z,55.1
2018-11-01T11:46:17.506Z,54.5
2018-11-01T11:51:31.222Z,56.2
2018-11-01T11:56:30.691Z,54.7
2018-11-01T12:01:30.746Z,56
2018-11-01T12:06:30.695Z,55.8
2018-11-01T12:11:30.721Z,54.4
2018-11-01T12:16:30.726Z,54.9
2018-11-01T12:21:30.719Z,53.7
2018-11-01T12:26:30.660Z,53
2018-11-01T12:31:30.744Z,53.2
2018-11-01T12:36:30.699Z,53.4
2018-11-01T12:41:30.808Z,53.3
2018-11-01T12:46:30.716Z,53.4
2018-11-01T12:51:31.182Z,52.7
2018-11-01T12:56:31.135Z,53.7
2018-11-01T13:01:42.929Z,54.6
2018-11-01T13:06:43.063Z,54.2
2018-11-01T13:11:42.679Z,52.3
2018-11-01T13:16:42.664Z,52.5
2018-11-01T13:21:42.693Z,53.3
2018-11-01T13:26:42.792Z,53.8
2018-11-01T13:31:42.702Z,53.8
2018-11-01T13:36:42.650Z,53.9
2018-11-01T13:41:43.229Z,54.1
2018-11-01T13:46:54.388Z,53.4
2018-11-01T13:51:54.077Z,53
2018-11-01T13:56:54.099Z,51.6
2018-11-01T14:01:54.111Z,52.7
2018-11-01T14:06:54.206Z,53.8
2018-11-01T14:11:54.204Z,52.1
2018-11-01T14:16:54.205Z,50.5
2018-11-01T14:21:54.292Z,51
2018-11-01T14:26:56.595Z,54.2
2018-11-01T14:32:06.484Z,54.1
2018-11-01T14:37:06.161Z,52.9
2018-11-01T14:42:06.172Z,53.1
2018-11-01T14:47:06.245Z,51.8
2018-11-01T14:52:07.430Z,50.8
2018-11-01T14:57:08.933Z,50.6
2018-11-01T15:02:06.159Z,50.6
2018-11-01T15:07:07.598Z,49.7
2018-11-01T15:12:07.379Z,50.9
2018-11-01T15:17:19.481Z,49.8
2018-11-01T15:22:19.173Z,49.9
2018-11-01T15:27:22.284Z,52.1
2018-11-01T15:32:19.193Z,52.9
2018-11-01T15:37:19.332Z,53.1
2018-11-01T15:42:19.219Z,54.9
2018-11-01T15:47:19.191Z,54.3
2018-11-01T15:52:20.054Z,55.1
2018-11-01T15:57:19.669Z,56.8
2018-11-01T16:02:32.541Z,55.7
2018-11-01T16:07:32.259Z,57.4
2018-11-01T16:12:32.149Z,58.6
2018-11-01T16:17:32.147Z,59.3
2018-11-01T16:22:32.589Z,60.1
2018-11-01T18:06:16.470Z,58.6
2018-11-01T18:11:16.485Z,59.7
2018-11-01T18:16:16.488Z,60.3
2018-11-01T18:21:16.824Z,60.3
2018-11-01T18:26:27.770Z,61.5
2018-11-01T18:31:27.544Z,60.6
2018-11-01T18:36:27.493Z,61.2
2018-11-01T18:41:27.480Z,61
2018-11-01T18:46:27.473Z,60.5
2018-11-01T18:51:27.509Z,60.5
2018-11-01T18:56:27.513Z,61.3
2018-11-01T19:01:27.498Z,61.1
2018-11-01T19:06:27.504Z,62.3
2018-11-01T19:11:40.185Z,62.7
2018-11-01T19:16:39.914Z,63.5
2018-11-01T19:21:40.065Z,63.5
2018-11-01T19:26:40.064Z,62
2018-11-01T19:31:39.846Z,62.5
2018-11-01T19:36:39.863Z,62.7
2018-11-01T19:41:39.911Z,63.2
2018-11-01T19:46:43.597Z,64.5
2018-11-01T19:51:43.346Z,65.1
2018-11-01T19:56:55.384Z,66.1
2018-11-01T20:01:55.342Z,67
2018-11-01T20:06:55.393Z,68.5
2018-11-01T20:11:55.371Z,69.5
2018-11-01T20:16:55.420Z,70.8
2018-11-01T20:21:55.131Z,70.8
2018-11-01T20:26:55.267Z,70.4
2018-11-01T20:31:56.020Z,71.4
2018-11-01T20:36:55.329Z,72.9
2018-11-01T20:42:07.703Z,73.4
2018-11-01T20:47:07.444Z,73.8
2018-11-01T20:52:07.490Z,75.3
2018-11-01T20:57:08.253Z,76.6
2018-11-01T21:02:07.564Z,77.2
2018-11-01T21:07:09.336Z,76.6
2018-11-01T21:12:09.710Z,76.5
2018-11-01T21:17:11.969Z,77.3
2018-11-01T21:22:11.706Z,77.9
2018-11-01T21:27:24.296Z,79.2
2018-11-01T21:32:23.939Z,78.7
2018-11-01T21:37:26.682Z,78.9
2018-11-01T21:42:24.017Z,79.1
2018-11-01T21:47:24.013Z,78.6
2018-11-01T21:52:24.019Z,79.5
2018-11-01T21:57:24.004Z,81.8
2018-11-01T22:02:26.455Z,81.3
2018-11-01T22:09:42.744Z,81.7
2018-11-01T22:14:42.358Z,83
2018-11-01T22:19:42.287Z,83.7
2018-11-01T22:24:42.302Z,83.1
2018-11-01T22:29:53.567Z,83.7
2018-11-01T22:34:53.280Z,84
2018-11-01T22:39:53.387Z,84.9
2018-11-01T22:44:53.301Z,84.4
2018-11-01T22:49:53.305Z,86.2
2018-11-01T22:54:53.302Z,86.7
2018-11-01T22:59:53.429Z,85.6
2018-11-01T23:04:53.293Z,85.1
2018-11-01T23:09:53.329Z,84.2
2018-11-01T23:15:04.914Z,84.4
2018-11-01T23:20:04.961Z,84.6
2018-11-01T23:25:04.661Z,84.4
2018-11-01T23:30:04.951Z,84.8
2018-11-01T23:35:04.949Z,84.4
2018-11-01T23:40:05.019Z,84.8
2018-11-01T23:45:04.962Z,85.9
2018-11-01T23:50:04.930Z,85
2018-11-01T23:55:04.930Z,85.3
